createdAt,value
2018-11-06T00:01:06.660Z,5.08
2018-11-06T00:03:41.011Z,6.60
2018-11-06T00:06:09.619Z,4.92
2018-11-06T00:08:38.154Z,3.62
2018-11-06T00:11:08.745Z,3.25
2018-11-06T00:13:37.847Z,3.20
2018-11-06T00:16:07.888Z,3.70
2018-11-06T00:18:36.435Z,6.55
2018-11-06T00:21:05.263Z,4.58
2018-11-06T00:23:33.808Z,5.62
2018-11-06T00:26:02.362Z,7.92
2018-11-06T00:28:31.151Z,6.40
2018-11-06T00:31:00.041Z,11.08
2018-11-06T00:33:28.911Z,7.33
2018-11-06T00:35:57.444Z,6.50
2018-11-06T00:38:25.971Z,3.95
2018-11-06T00:40:54.520Z,4.45
2018-11-06T00:43:23.061Z,3.95
2018-11-06T00:45:51.602Z,3.70
2018-11-06T00:48:20.134Z,3.52
2018-11-06T00:50:48.878Z,3.20
2018-11-06T00:53:17.475Z,3.80
2018-11-06T00:55:46.027Z,4.17
2018-11-06T00:58:15.023Z,3.37
2018-11-06T01:00:43.556Z,3.50
2018-11-06T01:03:12.546Z,3.33
2018-11-06T01:05:41.403Z,3.58
2018-11-06T01:08:09.947Z,4.30
2018-11-06T01:10:38.486Z,4.53
2018-11-06T01:13:07.019Z,3.77
2018-11-06T01:15:35.551Z,4.10
2018-11-06T01:18:04.106Z,3.83
2018-11-06T01:20:32.632Z,4.10
2018-11-06T01:23:01.340Z,4.03
2018-11-06T01:25:29.979Z,3.70
2018-11-06T01:27:58.513Z,4.28
2018-11-06T01:30:27.047Z,4.12
2018-11-06T01:32:55.579Z,3.52
2018-11-06T01:35:24.113Z,4.03
2018-11-06T01:37:52.638Z,3.22
2018-11-06T01:40:21.776Z,3.70
2018-11-06T01:42:50.311Z,3.50
2018-11-06T01:45:19.538Z,8.83
2018-11-06T01:47:48.336Z,6.50
2018-11-06T01:50:18.229Z,9.25
2018-11-06T01:52:48.079Z,15.83
2018-11-06T01:55:16.660Z,7.00
2018-11-06T01:57:45.677Z,13.30
2018-11-06T02:00:17.357Z,16.97
2018-11-06T02:02:45.933Z,16.48
2018-11-06T02:05:16.008Z,9.85
2018-11-06T02:07:45.899Z,6.95
2018-11-06T02:10:15.499Z,5.70
2018-11-06T02:12:45.415Z,4.30
2018-11-06T02:15:14.008Z,4.05
2018-11-06T02:17:43.897Z,5.05
2018-11-06T02:20:13.934Z,3.83
2018-11-06T02:22:44.186Z,4.00
2018-11-06T02:25:13.362Z,4.78
2018-11-06T02:27:41.934Z,4.72
2018-11-06T02:30:12.379Z,4.65
2018-11-06T02:32:41.519Z,11.33
2018-11-06T02:35:10.123Z,9.15
2018-11-06T02:37:39.187Z,7.62
2018-11-06T02:40:09.880Z,6.90
2018-11-06T02:42:38.545Z,6.20
2018-11-06T02:45:08.171Z,5.72
2018-11-06T02:47:36.731Z,5.55
2018-11-06T02:50:06.511Z,6.17
2018-11-06T02:52:35.048Z,6.20
2018-11-06T02:55:03.661Z,5.55
2018-11-06T02:57:32.593Z,4.90
2018-11-06T03:00:01.249Z,4.85
2018-11-06T03:02:29.998Z,4.37
2018-11-06T03:04:58.622Z,4.42
2018-11-06T03:07:27.191Z,3.00
2018-11-06T03:09:56.174Z,3.60
2018-11-06T03:12:24.723Z,4.87
2018-11-06T03:14:53.264Z,4.50
2018-11-06T03:17:21.803Z,4.45
2018-11-06T03:19:50.342Z,4.70
2018-11-06T03:22:18.924Z,3.35
2018-11-06T03:24:47.455Z,3.70
2018-11-06T03:27:16.124Z,3.80
2018-11-06T03:29:44.671Z,3.42
2018-11-06T03:32:13.304Z,4.37
2018-11-06T03:34:42.251Z,3.55
2018-11-06T03:37:10.779Z,4.20
2018-11-06T03:39:39.592Z,3.98
2018-11-06T03:42:08.354Z,3.45
2018-11-06T03:44:36.899Z,3.90
2018-11-06T03:47:05.748Z,4.40
2018-11-06T03:49:34.293Z,5.47
2018-11-06T03:53:32.004Z,7.12
2018-11-06T03:56:00.534Z,4.40
2018-11-06T03:58:29.174Z,6.85
2018-11-06T04:00:57.710Z,5.75
2018-11-06T04:03:26.302Z,6.78
2018-11-06T04:05:54.840Z,13.78
2018-11-06T04:08:24.015Z,7.50
2018-11-06T04:10:52.547Z,5.83
2018-11-06T04:13:21.083Z,4.87
2018-11-06T04:15:49.619Z,5.35
2018-11-06T04:18:18.166Z,5.55
2018-11-06T04:20:47.451Z,4.15
2018-11-06T04:23:15.978Z,4.10
2018-11-06T04:25:44.513Z,3.40
2018-11-06T04:28:13.059Z,4.25
2018-11-06T04:30:41.970Z,17.55
2018-11-06T04:33:10.499Z,26.10
2018-11-06T04:35:39.047Z,62.20
2018-11-06T04:38:08.282Z,12.65
2018-11-06T04:40:36.799Z,5.90
2018-11-06T04:43:06.539Z,7.20
2018-11-06T04:45:35.076Z,4.87
2018-11-06T04:48:03.627Z,5.15
2018-11-06T04:50:32.494Z,3.75
2018-11-06T04:53:01.101Z,3.62
2018-11-06T04:55:29.648Z,3.92
2018-11-06T04:57:58.590Z,4.80
2018-11-06T05:00:27.144Z,3.85
2018-11-06T05:02:56.292Z,4.15
2018-11-06T05:05:24.821Z,3.77
2018-11-06T05:07:53.370Z,3.90
2018-11-06T05:10:21.929Z,5.60
2018-11-06T05:12:50.909Z,11.73
2018-11-06T05:15:19.457Z,6.03
2018-11-06T05:17:47.986Z,6.50
2018-11-06T05:20:17.961Z,3.83
2018-11-06T05:22:47.406Z,5.40
2018-11-06T05:25:16.188Z,5.50
2018-11-06T05:27:44.718Z,5.20
2018-11-06T05:30:13.596Z,4.42
2018-11-06T05:32:43.905Z,4.83
2018-11-06T05:35:12.711Z,3.60
2018-11-06T05:37:41.701Z,4.22
2018-11-06T05:40:22.656Z,3.98
2018-11-06T05:42:51.207Z,4.47
2018-11-06T05:45:20.384Z,4.50
2018-11-06T05:47:48.930Z,5.10
2018-11-06T05:50:17.483Z,5.95
2018-11-06T05:52:46.065Z,5.45
2018-11-06T05:55:14.607Z,4.90
2018-11-06T05:57:43.211Z,6.83
2018-11-06T06:00:11.943Z,7.80
2018-11-06T06:02:40.497Z,7.33
2018-11-06T06:05:09.463Z,40.92
2018-11-06T06:07:38.020Z,19.02
2018-11-06T06:10:07.451Z,13.78
2018-11-06T06:12:36.753Z,18.27
2018-11-06T06:15:06.447Z,16.10
2018-11-06T06:17:35.171Z,13.72
2018-11-06T06:20:04.239Z,13.08
2018-11-06T06:22:32.822Z,6.83
2018-11-06T06:25:01.732Z,6.60
2018-11-06T06:34:14.684Z,3.40
2018-11-06T06:36:43.533Z,6.47
2018-11-06T06:39:12.375Z,9.43
2018-11-06T06:41:41.106Z,10.50
2018-11-06T06:44:09.671Z,6.30
2018-11-06T06:46:38.230Z,7.95
2018-11-06T06:49:06.841Z,6.10
2018-11-06T06:51:35.470Z,4.95
2018-11-06T06:54:04.131Z,5.10
2018-11-06T06:56:32.629Z,4.05
2018-11-06T06:59:01.159Z,3.33
2018-11-06T07:01:29.957Z,3.95
2018-11-06T07:03:58.547Z,4.00
2018-11-06T07:06:27.075Z,3.50
2018-11-06T07:08:55.611Z,3.50
2018-11-06T07:11:24.131Z,4.60
2018-11-06T07:13:52.657Z,4.33
2018-11-06T07:16:21.207Z,4.58
2018-11-06T07:18:50.098Z,4.53
2018-11-06T07:21:18.651Z,5.90
2018-11-06T07:23:47.490Z,5.80
2018-11-06T07:26:16.034Z,6.12
2018-11-06T07:28:44.635Z,6.60
2018-11-06T07:31:13.147Z,6.03
2018-11-06T07:33:41.711Z,7.53
2018-11-06T07:36:10.701Z,7.60
2018-11-06T07:38:39.239Z,8.30
2018-11-06T07:41:07.884Z,7.67
2018-11-06T07:43:36.752Z,7.50
2018-11-06T07:46:05.900Z,8.25
2018-11-06T07:48:34.476Z,9.68
2018-11-06T07:51:03.047Z,11.73
2018-11-06T07:53:31.641Z,12.50
2018-11-06T07:56:00.224Z,11.35
2018-11-06T07:58:28.779Z,12.73
2018-11-06T08:00:57.335Z,12.33
2018-11-06T08:03:25.886Z,14.95
2018-11-06T08:05:54.783Z,13.43
2018-11-06T08:08:23.331Z,14.05
2018-11-06T08:10:51.867Z,14.80
2018-11-06T08:13:20.988Z,28.47
2018-11-06T08:15:49.527Z,28.90
2018-11-06T08:18:18.078Z,16.82
2018-11-06T08:20:46.748Z,13.32
2018-11-06T08:23:15.190Z,34.70
2018-11-06T08:25:44.059Z,19.73
2018-11-06T08:28:12.963Z,19.25
2018-11-06T08:30:41.636Z,16.37
2018-11-06T08:33:10.083Z,18.87
2018-11-06T08:35:38.628Z,18.45
2018-11-06T08:38:07.446Z,19.12
2018-11-06T08:40:35.976Z,16.57
2018-11-06T08:43:04.551Z,16.75
2018-11-06T08:45:33.082Z,18.40
2018-11-06T08:48:01.653Z,20.43
2018-11-06T08:50:30.199Z,19.12
2018-11-06T08:52:58.750Z,23.15
2018-11-06T08:55:27.832Z,20.08
2018-11-06T08:57:56.383Z,20.90
2018-11-06T09:00:24.967Z,20.97
2018-11-06T09:02:53.514Z,23.05
2018-11-06T09:05:22.358Z,20.35
2018-11-06T09:07:51.256Z,22.70
2018-11-06T09:10:20.111Z,18.87
2018-11-06T09:12:48.671Z,21.00
2018-11-06T09:15:17.804Z,20.20
2018-11-06T09:17:46.422Z,20.62
2018-11-06T09:20:16.397Z,22.02
2018-11-06T09:22:44.951Z,23.00
2018-11-06T09:25:15.027Z,19.52
2018-11-06T09:27:44.011Z,21.60
2018-11-06T09:30:14.538Z,22.37
2018-11-06T09:32:43.729Z,21.60
2018-11-06T09:35:13.006Z,24.63
2018-11-06T09:37:42.519Z,22.55
2018-11-06T09:40:14.346Z,23.62
2018-11-06T09:42:43.103Z,21.95
2018-11-06T09:45:12.778Z,22.27
2018-11-06T09:47:41.303Z,22.02
2018-11-06T09:50:16.131Z,20.32
2018-11-06T09:52:45.607Z,21.60
2018-11-06T09:55:14.791Z,19.90
2018-11-06T09:57:43.587Z,20.27
2018-11-06T10:00:15.355Z,20.55
2018-11-06T10:02:43.915Z,20.70
2018-11-06T10:05:13.162Z,22.15
2018-11-06T10:07:41.741Z,21.87
2018-11-06T10:10:13.390Z,19.75
2018-11-06T10:12:42.966Z,21.73
2018-11-06T10:15:13.629Z,22.70
2018-11-06T10:17:43.538Z,21.48
2018-11-06T10:20:13.114Z,20.25
2018-11-06T10:22:41.715Z,21.42
2018-11-06T10:25:10.327Z,21.40
2018-11-06T10:27:39.954Z,19.15
2018-11-06T10:30:12.182Z,20.23
2018-11-06T10:32:40.847Z,20.72
2018-11-06T10:35:10.725Z,21.73
2018-11-06T10:37:39.340Z,17.77
2018-11-06T10:40:11.932Z,21.73
2018-11-06T10:44:09.859Z,21.57
2018-11-06T10:46:39.075Z,24.15
2018-11-06T10:49:08.953Z,23.85
2018-11-06T10:51:37.567Z,23.47
2018-11-06T10:54:06.502Z,25.85
2018-11-06T10:56:35.033Z,24.20
2018-11-06T10:59:03.567Z,22.00
2018-11-06T11:01:37.508Z,26.45
2018-11-06T11:04:11.386Z,24.67
2018-11-06T11:06:40.167Z,23.60
2018-11-06T11:09:10.695Z,26.45
2018-11-06T11:11:39.691Z,24.52
2018-11-06T11:14:08.482Z,24.18
2018-11-06T11:16:37.020Z,25.57
2018-11-06T11:19:05.910Z,26.20
2018-11-06T11:21:34.446Z,23.98
2018-11-06T11:24:03.054Z,24.67
2018-11-06T11:26:31.588Z,23.20
2018-11-06T11:29:00.119Z,22.00
2018-11-06T11:31:28.970Z,23.18
2018-11-06T11:33:57.601Z,24.32
2018-11-06T11:36:26.263Z,24.47
2018-11-06T11:38:54.807Z,24.67
2018-11-06T11:41:23.351Z,24.40
2018-11-06T11:43:51.894Z,24.20
2018-11-06T11:46:20.439Z,26.52
2018-11-06T11:48:49.288Z,25.12
2018-11-06T11:51:17.963Z,25.72
2018-11-06T11:53:46.523Z,22.45
2018-11-06T11:56:15.758Z,19.95
2018-11-06T11:58:44.324Z,25.90
2018-11-06T12:01:12.874Z,22.13
2018-11-06T12:03:41.431Z,20.90
2018-11-06T12:06:09.973Z,20.95
2018-11-06T12:08:38.774Z,21.05
2018-11-06T12:11:07.637Z,23.90
2018-11-06T12:13:36.699Z,23.02
2018-11-06T12:16:05.446Z,20.70
2018-11-06T12:18:33.993Z,22.13
2018-11-06T12:21:03.022Z,19.73
2018-11-06T12:23:31.575Z,24.05
2018-11-06T12:26:00.154Z,19.87
2018-11-06T12:28:29.078Z,19.80
2018-11-06T12:30:57.627Z,20.52
2018-11-06T12:33:26.175Z,19.32
2018-11-06T12:35:55.143Z,20.88
2018-11-06T12:38:23.693Z,19.92
2018-11-06T12:40:52.287Z,18.55
2018-11-06T12:43:20.869Z,22.55
2018-11-06T12:45:49.703Z,19.80
2018-11-06T12:48:18.230Z,18.40
2018-11-06T12:50:46.768Z,21.95
2018-11-06T12:53:15.527Z,21.77
2018-11-06T12:55:44.418Z,21.77
2018-11-06T12:58:12.961Z,22.50
2018-11-06T13:00:41.587Z,21.97
2018-11-06T13:03:10.163Z,22.42
2018-11-06T13:05:38.723Z,21.42
2018-11-06T13:08:07.267Z,19.75
2018-11-06T13:10:35.815Z,19.60
2018-11-06T13:13:04.902Z,21.02
2018-11-06T13:15:33.517Z,21.70
2018-11-06T13:18:02.043Z,21.10
2018-11-06T13:20:31.095Z,23.52
2018-11-06T13:22:59.643Z,21.48
2018-11-06T13:25:28.220Z,21.82
2018-11-06T13:27:56.789Z,20.00
2018-11-06T13:30:25.330Z,22.75
2018-11-06T13:32:53.999Z,22.32
2018-11-06T13:35:22.556Z,23.98
2018-11-06T13:37:51.311Z,22.90
2018-11-06T13:40:20.147Z,23.85
2018-11-06T13:42:48.866Z,22.00
2018-11-06T13:45:19.108Z,23.60
2018-11-06T13:47:47.848Z,24.07
2018-11-06T13:50:16.398Z,22.62
2018-11-06T13:52:44.959Z,26.33
2018-11-06T13:55:14.846Z,20.62
2018-11-06T13:57:44.848Z,21.70
2018-11-06T14:00:16.796Z,25.62
2018-11-06T14:02:45.766Z,23.70
2018-11-06T14:05:14.591Z,25.15
2018-11-06T14:07:43.147Z,23.02
2018-11-06T14:10:11.701Z,23.12
2018-11-06T14:12:41.671Z,22.90
2018-11-06T14:15:10.223Z,22.22
2018-11-06T14:17:39.139Z,22.98
2018-11-06T14:20:10.454Z,25.85
2018-11-06T14:22:38.992Z,23.30
2018-11-06T14:25:08.368Z,24.40
2018-11-06T14:27:37.005Z,22.37
2018-11-06T14:30:09.091Z,25.02
2018-11-06T14:32:37.995Z,23.20
2018-11-06T14:35:09.266Z,23.98
2018-11-06T14:37:38.187Z,25.32
2018-11-06T14:40:08.065Z,24.07
2018-11-06T14:42:36.950Z,23.55
2018-11-06T14:45:07.225Z,23.00
2018-11-06T14:47:35.975Z,26.93
2018-11-06T14:50:05.575Z,25.50
2018-11-06T14:52:34.859Z,26.73
2018-11-06T14:55:03.805Z,27.35
2018-11-06T14:57:32.759Z,25.55
2018-11-06T15:00:01.880Z,25.25
2018-11-06T15:02:30.439Z,26.57
2018-11-06T15:04:58.975Z,23.70
2018-11-06T15:07:27.559Z,26.87
2018-11-06T15:09:56.199Z,23.05
2018-11-06T15:12:24.755Z,26.50
2018-11-06T15:14:53.294Z,27.02
2018-11-06T15:17:21.838Z,25.32
2018-11-06T15:19:50.936Z,26.50
2018-11-06T15:22:19.484Z,24.45
2018-11-06T15:24:48.380Z,21.73
2018-11-06T15:27:16.968Z,21.87
2018-11-06T15:29:45.717Z,24.32
2018-11-06T15:32:14.866Z,21.33
2018-11-06T15:34:43.415Z,25.40
2018-11-06T15:37:11.959Z,23.20
2018-11-06T15:39:40.843Z,23.25
2018-11-06T15:42:09.614Z,24.15
2018-11-06T15:44:38.088Z,21.15
2018-11-06T15:47:07.707Z,21.70
2018-11-06T15:49:36.263Z,21.05
2018-11-06T15:52:05.308Z,19.17
2018-11-06T15:54:34.215Z,24.05
2018-11-06T15:57:02.737Z,19.00
2018-11-06T15:59:31.281Z,20.75
2018-11-06T16:01:59.851Z,20.90
2018-11-06T16:04:28.390Z,21.70
2018-11-06T16:06:57.010Z,19.50
2018-11-06T16:09:25.544Z,19.55
2018-11-06T16:11:54.098Z,18.05
2018-11-06T16:14:23.250Z,18.77
2018-11-06T16:16:51.801Z,20.45
2018-11-06T16:19:20.334Z,18.60
2018-11-06T16:21:49.311Z,19.23
2018-11-06T16:24:17.907Z,19.62
2018-11-06T16:26:46.457Z,19.52
2018-11-06T16:29:15.004Z,18.50
2018-11-06T16:31:44.126Z,17.30
2018-11-06T16:34:12.721Z,21.00
2018-11-06T16:36:41.265Z,19.48
2018-11-06T16:39:11.387Z,20.60
2018-11-06T16:41:40.494Z,19.65
2018-11-06T16:44:09.315Z,21.68
2018-11-06T16:46:37.985Z,23.10
2018-11-06T16:49:06.679Z,21.35
2018-11-06T16:51:35.669Z,21.05
2018-11-06T16:54:04.763Z,20.50
2018-11-06T16:56:33.599Z,19.40
2018-11-06T16:59:02.231Z,23.27
2018-11-06T17:01:30.795Z,20.35
2018-11-06T17:03:59.465Z,23.20
2018-11-06T17:06:33.135Z,22.48
2018-11-06T17:09:02.122Z,24.63
2018-11-06T17:11:30.699Z,23.70
2018-11-06T17:13:59.269Z,24.32
2018-11-06T17:16:28.219Z,23.80
2018-11-06T17:18:56.771Z,21.87
2018-11-06T17:21:25.418Z,22.75
2018-11-06T17:23:53.966Z,22.93
2018-11-06T17:26:22.923Z,22.75
2018-11-06T17:28:51.490Z,23.12
2018-11-06T17:31:20.038Z,20.70
2018-11-06T17:33:48.647Z,23.18
2018-11-06T17:36:17.527Z,20.82
2018-11-06T17:38:46.063Z,22.50
2018-11-06T17:41:14.617Z,23.38
2018-11-06T17:43:43.187Z,21.73
2018-11-06T17:46:12.303Z,22.73
2018-11-06T17:48:41.260Z,21.97
2018-11-06T17:51:10.011Z,22.65
2018-11-06T17:53:38.558Z,22.73
2018-11-06T17:56:07.095Z,22.40
2018-11-06T17:58:36.331Z,24.30
2018-11-06T18:01:05.543Z,23.57
2018-11-06T18:03:34.092Z,24.35
2018-11-06T18:06:03.233Z,23.50
2018-11-06T18:08:31.786Z,22.62
2018-11-06T18:11:00.345Z,24.75
2018-11-06T18:13:28.899Z,22.42
2018-11-06T18:15:57.577Z,24.07
2018-11-06T18:18:26.120Z,20.75
2018-11-06T18:20:54.682Z,24.45
2018-11-06T18:23:23.394Z,25.10
2018-11-06T18:25:52.100Z,25.02
2018-11-06T18:28:20.535Z,21.57
2018-11-06T18:30:49.375Z,23.55
2018-11-06T18:33:17.935Z,20.57
2018-11-06T18:35:46.512Z,22.73
2018-11-06T18:38:15.291Z,25.82
2018-11-06T18:40:43.791Z,22.22
2018-11-06T18:43:12.342Z,23.20
2018-11-06T18:45:40.894Z,24.23
2018-11-06T18:48:09.447Z,23.00
2018-11-06T18:50:38.662Z,23.98
2018-11-06T18:53:07.207Z,22.65
2018-11-06T18:55:35.749Z,21.68
2018-11-06T18:58:05.149Z,23.85
2018-11-06T19:00:33.679Z,24.18
2018-11-06T19:03:02.255Z,23.45
2018-11-06T19:05:30.803Z,24.23
2018-11-06T19:07:59.355Z,21.10
2018-11-06T19:10:28.121Z,21.42
2018-11-06T19:12:56.659Z,22.80
2018-11-06T19:15:25.712Z,21.82
2018-11-06T19:17:54.678Z,21.10
2018-11-06T19:20:23.286Z,23.87
2018-11-06T19:22:51.879Z,22.95
2018-11-06T19:25:20.426Z,25.10
2018-11-06T19:27:48.647Z,25.08
2018-11-06T19:30:18.478Z,22.07
2018-11-06T19:32:46.963Z,20.45
2018-11-06T19:35:15.213Z,19.55
2018-11-06T19:37:43.482Z,23.10
2018-11-06T19:40:14.011Z,20.85
2018-11-06T19:42:43.114Z,23.42
2018-11-06T19:45:12.090Z,21.35
2018-11-06T19:47:40.733Z,21.82
2018-11-06T19:50:10.270Z,20.82
2018-11-06T19:52:39.068Z,21.20
2018-11-06T19:55:08.480Z,21.55
2018-11-06T19:57:36.727Z,21.62
2018-11-06T20:00:07.964Z,22.48
2018-11-06T20:02:36.573Z,23.62
2018-11-06T20:05:05.092Z,20.70
2018-11-06T20:07:33.563Z,21.33
2018-11-06T20:10:01.787Z,20.05
2018-11-06T20:12:30.258Z,20.08
2018-11-06T20:14:58.491Z,21.62
2018-11-06T20:17:26.763Z,20.08
2018-11-06T20:19:54.930Z,20.40
2018-11-06T20:22:23.322Z,20.82
2018-11-06T20:24:51.544Z,20.90
2018-11-06T20:27:20.020Z,20.60
2018-11-06T20:29:48.140Z,21.80
2018-11-06T20:32:16.363Z,20.62
2018-11-06T20:34:44.563Z,17.77
2018-11-06T20:37:12.777Z,20.40
2018-11-06T20:39:41.081Z,21.37
2018-11-06T20:42:09.842Z,20.92
2018-11-06T20:44:38.190Z,21.27
2018-11-06T20:47:06.472Z,19.48
2018-11-06T20:49:34.778Z,19.55
2018-11-06T20:52:02.955Z,21.60
2018-11-06T20:54:31.214Z,23.67
2018-11-06T20:56:59.454Z,19.73
2018-11-06T20:59:27.881Z,21.45
2018-11-06T21:01:56.472Z,20.82
2018-11-06T21:04:24.678Z,21.10
2018-11-06T21:06:52.908Z,20.90
2018-11-06T21:09:21.152Z,22.60
2018-11-06T21:11:49.391Z,23.70
2018-11-06T21:14:17.955Z,21.42
2018-11-06T21:16:46.531Z,22.40
2018-11-06T21:19:14.742Z,21.93
2018-11-06T21:21:42.988Z,22.32
2018-11-06T21:24:11.199Z,22.67
2018-11-06T21:26:39.648Z,23.45
2018-11-06T21:29:08.465Z,22.13
2018-11-06T21:31:36.682Z,17.95
2018-11-06T21:34:05.315Z,23.30
2018-11-06T21:36:33.642Z,22.30
2018-11-06T21:39:01.882Z,25.08
2018-11-06T21:41:30.536Z,26.17
2018-11-06T21:43:58.743Z,21.17
2018-11-06T21:46:26.971Z,23.95
2018-11-06T21:48:55.182Z,19.65
2018-11-06T21:51:23.398Z,17.50
2018-11-06T21:53:52.196Z,20.00
2018-11-06T21:56:20.407Z,20.52
2018-11-06T21:58:48.972Z,19.87
2018-11-06T22:01:17.576Z,20.12
2018-11-06T22:03:45.782Z,17.42
2018-11-06T22:06:13.989Z,17.70
2018-11-06T22:08:42.218Z,20.08
2018-11-06T22:11:10.427Z,18.23
2018-11-06T22:13:39.033Z,16.35
2018-11-06T22:16:07.281Z,17.23
2018-11-06T22:18:35.830Z,18.55
2018-11-06T22:21:04.322Z,19.17
2018-11-06T22:23:32.557Z,19.20
2018-11-06T22:26:00.806Z,17.30
2018-11-06T22:28:29.079Z,16.32
2018-11-06T22:30:57.357Z,18.25
2018-11-06T22:33:25.626Z,16.97
2018-11-06T22:35:53.840Z,17.40
2018-11-06T22:38:22.240Z,17.50
2018-11-06T22:40:50.450Z,17.52
2018-11-06T22:43:18.666Z,19.17
2018-11-06T22:45:47.343Z,15.68
2018-11-06T22:48:15.759Z,16.35
2018-11-06T22:50:43.994Z,16.62
2018-11-06T22:53:12.595Z,16.67
2018-11-06T22:55:40.812Z,17.30
2018-11-06T22:58:09.214Z,16.67
2018-11-06T23:00:42.728Z,16.85
2018-11-06T23:03:11.023Z,15.32
2018-11-06T23:05:39.494Z,14.10
2018-11-06T23:08:13.423Z,14.58
2018-11-06T23:10:42.170Z,17.75
2018-11-06T23:13:10.774Z,15.83
2018-11-06T23:15:39.431Z,18.20
2018-11-06T23:18:07.655Z,17.02
2018-11-06T23:20:35.977Z,14.90
2018-11-06T23:23:04.600Z,16.67
2018-11-06T23:25:32.946Z,14.53
2018-11-06T23:28:01.162Z,14.70
2018-11-06T23:30:29.378Z,15.45
2018-11-06T23:32:57.778Z,13.98
2018-11-06T23:35:26.056Z,14.15
2018-11-06T23:37:54.242Z,13.48
2018-11-06T23:40:22.445Z,13.45
2018-11-06T23:42:51.224Z,15.80
2018-11-06T23:45:19.432Z,13.88
2018-11-06T23:47:47.870Z,14.70
2018-11-06T23:50:16.112Z,14.10
2018-11-06T23:52:44.630Z,13.88
2018-11-06T23:55:13.069Z,14.45
2018-11-06T23:57:41.286Z,14.13
